createdAt,value
2022-11-28T00:01:44.705Z,12.69
2022-11-28T00:04:13.891Z,12.76
2022-11-28T00:06:47.099Z,12.72
2022-11-28T00:09:17.268Z,12.69
2022-11-28T00:11:48.481Z,12.80
2022-11-28T00:14:18.716Z,12.86
2022-11-28T00:16:48.009Z,12.89
2022-11-28T00:19:16.465Z,12.95
2022-11-28T00:21:44.847Z,12.94
2022-11-28T00:24:13.404Z,12.97
2022-11-28T00:26:42.538Z,12.92
2022-11-28T00:29:11.520Z,12.94
2022-11-28T00:31:42.809Z,12.95
2022-11-28T00:34:13.753Z,13.00
2022-11-28T00:36:44.823Z,13.00
2022-11-28T00:39:14.022Z,13.00
2022-11-28T00:41:43.256Z,13.03
2022-11-28T00:44:12.579Z,13.07
2022-11-28T00:46:41.011Z,13.10
2022-11-28T00:49:09.507Z,13.03
2022-11-28T00:51:38.277Z,13.11
2022-11-28T00:54:07.026Z,13.06
2022-11-28T00:56:38.682Z,13.09
2022-11-28T00:59:07.405Z,13.10
2022-11-28T01:01:43.963Z,13.13
2022-11-28T01:04:14.846Z,13.08
2022-11-28T01:06:45.717Z,13.03
2022-11-28T01:09:17.876Z,13.09
2022-11-28T01:11:48.925Z,13.17
2022-11-28T01:14:21.651Z,13.13
2022-11-28T01:16:50.326Z,13.09
2022-11-28T01:19:19.114Z,13.01
2022-11-28T01:21:47.924Z,13.16
2022-11-28T01:24:16.496Z,13.11
2022-11-28T01:26:44.903Z,13.07
2022-11-28T01:29:13.337Z,13.23
2022-11-28T01:31:42.307Z,13.20
2022-11-28T01:34:10.759Z,13.25
2022-11-28T01:36:39.250Z,13.31
2022-11-28T01:39:07.896Z,13.38
2022-11-28T01:41:36.552Z,13.34
2022-11-28T01:44:07.902Z,13.30
2022-11-28T01:46:36.774Z,13.29
2022-11-28T01:49:17.260Z,13.28
2022-11-28T01:51:50.842Z,13.28
2022-11-28T01:54:22.511Z,13.23
2022-11-28T01:56:56.946Z,13.25
2022-11-28T01:59:30.380Z,13.12
2022-11-28T02:01:58.953Z,13.15
2022-11-28T02:04:28.302Z,13.10
2022-11-28T02:06:57.027Z,12.82
2022-11-28T02:09:25.505Z,13.00
2022-11-28T02:12:03.836Z,12.91
2022-11-28T02:14:41.096Z,12.97
2022-11-28T02:17:12.725Z,13.03
2022-11-28T02:19:53.120Z,12.92
2022-11-28T02:22:24.355Z,12.93
2022-11-28T02:25:08.693Z,12.98
2022-11-28T02:27:56.411Z,12.95
2022-11-28T02:31:02.510Z,12.87
2022-11-28T02:33:33.816Z,12.95
2022-11-28T02:36:12.636Z,12.90
2022-11-28T02:38:57.716Z,12.92
2022-11-28T02:42:04.588Z,12.73
2022-11-28T02:44:47.530Z,12.74
2022-11-28T02:47:25.799Z,12.85
2022-11-28T02:49:57.483Z,12.92
2022-11-28T02:52:34.806Z,12.91
2022-11-28T02:55:04.850Z,12.84
2022-11-28T02:57:49.948Z,12.77
2022-11-28T03:00:26.013Z,12.74
2022-11-28T03:03:09.996Z,12.62
2022-11-28T03:05:42.819Z,12.60
2022-11-28T03:08:42.550Z,12.45
2022-11-28T03:11:24.366Z,12.21
2022-11-28T03:14:04.469Z,12.42
2022-11-28T03:16:51.421Z,12.48
2022-11-28T03:19:32.773Z,12.48
2022-11-28T03:22:35.635Z,12.66
2022-11-28T03:25:19.376Z,12.52
2022-11-28T03:28:12.958Z,12.44
2022-11-28T03:30:48.301Z,12.47
2022-11-28T03:33:21.231Z,12.30
2022-11-28T03:35:56.804Z,12.48
2022-11-28T03:38:34.469Z,12.56
2022-11-28T03:41:12.907Z,12.56
2022-11-28T03:43:46.326Z,12.55
2022-11-28T03:46:18.699Z,12.43
2022-11-28T03:48:51.751Z,12.53
2022-11-28T03:51:24.707Z,12.41
2022-11-28T03:54:14.019Z,12.43
2022-11-28T03:56:55.704Z,12.38
2022-11-28T03:59:40.861Z,12.50
2022-11-28T04:02:37.293Z,12.61
2022-11-28T04:05:22.586Z,12.54
2022-11-28T04:08:02.244Z,12.41
2022-11-28T04:10:38.699Z,12.10
2022-11-28T04:13:21.449Z,12.30
2022-11-28T04:16:08.618Z,12.31
2022-11-28T04:18:47.314Z,12.31
2022-11-28T04:21:28.552Z,12.43
2022-11-28T04:24:02.668Z,12.39
2022-11-28T04:26:37.197Z,12.49
2022-11-28T04:29:11.223Z,12.31
2022-11-28T04:31:43.533Z,12.35
2022-11-28T04:34:16.300Z,12.26
2022-11-28T04:36:46.123Z,12.22
2022-11-28T04:39:19.491Z,12.34
2022-11-28T04:42:00.015Z,12.36
2022-11-28T04:44:37.780Z,12.29
2022-11-28T04:47:06.908Z,12.34
2022-11-28T04:49:35.313Z,12.55
2022-11-28T04:52:09.837Z,12.57
2022-11-28T04:54:42.753Z,12.16
2022-11-28T04:57:17.264Z,12.28
2022-11-28T04:59:47.004Z,12.48
2022-11-28T05:02:17.710Z,12.50
2022-11-28T05:04:46.108Z,12.48
2022-11-28T05:07:14.558Z,12.52
2022-11-28T05:09:42.990Z,12.52
2022-11-28T05:12:11.510Z,12.54
2022-11-28T05:14:41.128Z,12.50
2022-11-28T05:17:12.708Z,12.63
2022-11-28T05:19:41.149Z,12.42
2022-11-28T05:22:09.703Z,12.40
2022-11-28T05:24:38.131Z,12.56
2022-11-28T05:27:07.727Z,12.57
2022-11-28T05:29:36.093Z,12.34
2022-11-28T05:32:04.690Z,12.45
2022-11-28T05:34:33.205Z,12.50
2022-11-28T05:37:02.257Z,12.58
2022-11-28T05:39:31.323Z,12.60
2022-11-28T05:41:59.819Z,12.56
2022-11-28T05:44:28.196Z,12.54
2022-11-28T05:46:56.648Z,12.70
2022-11-28T05:49:26.257Z,12.75
2022-11-28T05:51:54.729Z,12.73
2022-11-28T05:54:23.181Z,12.67
2022-11-28T05:56:51.626Z,12.65
2022-11-28T05:59:20.033Z,12.67
2022-11-28T06:01:48.471Z,12.73
2022-11-28T06:04:17.026Z,12.75
2022-11-28T06:06:45.435Z,12.69
2022-11-28T06:09:13.987Z,12.61
2022-11-28T06:11:42.491Z,12.68
2022-11-28T06:14:11.451Z,12.83
2022-11-28T06:16:41.254Z,12.82
2022-11-28T06:19:13.380Z,12.94
2022-11-28T06:21:42.160Z,12.87
2022-11-28T06:24:10.898Z,12.86
2022-11-28T06:26:39.275Z,12.75
2022-11-28T06:29:07.724Z,12.85
2022-11-28T06:31:36.303Z,12.79
2022-11-28T06:34:04.850Z,12.86
2022-11-28T06:36:33.342Z,12.93
2022-11-28T06:39:01.739Z,12.97
2022-11-28T06:41:30.454Z,12.85
2022-11-28T06:43:58.948Z,12.82
2022-11-28T06:46:27.512Z,12.80
2022-11-28T06:48:56.031Z,12.94
2022-11-28T06:51:24.400Z,12.83
2022-11-28T06:53:54.186Z,12.85
2022-11-28T06:56:22.924Z,12.86
2022-11-28T06:58:56.186Z,12.96
2022-11-28T07:01:27.890Z,13.03
2022-11-28T07:03:57.197Z,13.11
2022-11-28T07:06:27.031Z,12.94
2022-11-28T07:08:57.577Z,12.99
2022-11-28T07:11:31.540Z,13.11
2022-11-28T07:14:03.101Z,12.97
2022-11-28T07:16:33.045Z,12.90
2022-11-28T07:19:01.656Z,13.05
2022-11-28T07:21:30.637Z,13.00
2022-11-28T07:24:00.049Z,13.05
2022-11-28T07:26:28.803Z,12.99
2022-11-28T07:28:59.646Z,13.04
2022-11-28T07:31:32.013Z,13.02
2022-11-28T07:34:03.535Z,13.16
2022-11-28T07:36:32.495Z,13.00
2022-11-28T07:39:03.090Z,13.03
2022-11-28T07:41:31.621Z,13.02
2022-11-28T07:44:02.282Z,12.94
2022-11-28T07:46:32.557Z,12.93
2022-11-28T07:49:01.444Z,12.96
2022-11-28T07:51:32.443Z,13.10
2022-11-28T07:54:02.848Z,13.11
2022-11-28T07:57:04.500Z,12.98
2022-11-28T07:59:22.779Z,12.97
2022-11-28T08:01:53.508Z,12.97
2022-11-28T08:04:22.902Z,13.06
2022-11-28T08:06:51.360Z,12.84
2022-11-28T08:09:19.823Z,12.92
2022-11-28T08:11:48.315Z,12.95
2022-11-28T08:14:16.743Z,13.06
2022-11-28T08:16:46.616Z,13.13
2022-11-28T08:19:15.398Z,13.06
2022-11-28T08:21:43.830Z,13.02
2022-11-28T08:24:12.272Z,12.94
2022-11-28T08:26:40.656Z,13.15
2022-11-28T08:29:09.976Z,13.18
2022-11-28T08:31:40.006Z,13.10
2022-11-28T08:34:10.750Z,13.08
2022-11-28T08:36:39.702Z,13.12
2022-11-28T08:39:24.953Z,13.13
2022-11-28T08:41:57.287Z,13.28
2022-11-28T08:44:27.311Z,13.42
2022-11-28T08:46:55.827Z,13.45
2022-11-28T08:49:24.241Z,13.47
2022-11-28T08:51:53.629Z,13.47
2022-11-28T08:54:22.159Z,13.45
2022-11-28T08:56:51.594Z,13.53
2022-11-28T08:59:20.040Z,13.61
2022-11-28T09:01:48.521Z,13.63
2022-11-28T09:04:18.551Z,13.50
2022-11-28T09:06:47.134Z,13.43
2022-11-28T09:09:15.598Z,13.32
2022-11-28T09:11:50.411Z,13.41
2022-11-28T09:14:19.885Z,13.43
2022-11-28T09:16:48.449Z,13.38
2022-11-28T09:19:16.946Z,13.37
2022-11-28T09:21:45.383Z,13.48
2022-11-28T09:24:16.646Z,13.50
2022-11-28T09:26:45.126Z,13.61
2022-11-28T09:29:13.535Z,13.68
2022-11-28T09:31:46.971Z,13.70
2022-11-28T09:34:16.167Z,13.65
2022-11-28T09:36:44.704Z,13.67
2022-11-28T09:39:13.115Z,13.69
2022-11-28T09:41:58.174Z,13.67
2022-11-28T09:44:32.814Z,13.80
2022-11-28T09:47:06.486Z,13.64
2022-11-28T09:49:46.345Z,13.53
2022-11-28T09:53:03.270Z,13.69
2022-11-28T09:55:40.202Z,13.77
2022-11-28T09:58:47.381Z,14.02
2022-11-28T10:01:18.580Z,13.93
2022-11-28T10:03:59.410Z,14.08
2022-11-28T10:06:41.323Z,13.94
2022-11-28T10:09:31.399Z,14.00
2022-11-28T10:12:27.660Z,13.88
2022-11-28T10:15:33.098Z,14.07
2022-11-28T10:18:13.727Z,14.00
2022-11-28T10:20:45.708Z,14.13
2022-11-28T10:23:30.219Z,14.17
2022-11-28T10:26:26.914Z,14.14
2022-11-28T10:28:57.851Z,14.09
2022-11-28T10:31:41.742Z,14.14
2022-11-28T10:34:15.898Z,14.01
2022-11-28T10:37:27.135Z,13.95
2022-11-28T10:39:56.766Z,13.94
2022-11-28T10:42:39.947Z,14.05
2022-11-28T10:45:34.758Z,14.03
2022-11-28T10:48:41.788Z,13.94
2022-11-28T10:51:15.721Z,14.04
2022-11-28T10:53:56.435Z,14.14
2022-11-28T10:56:40.648Z,14.00
2022-11-28T10:59:27.224Z,14.17
2022-11-28T11:01:57.191Z,14.04
2022-11-28T11:04:27.658Z,14.07
2022-11-28T11:07:16.138Z,14.13
2022-11-28T11:09:47.408Z,14.10
2022-11-28T11:12:21.644Z,14.11
2022-11-28T11:14:50.269Z,14.13
2022-11-28T11:17:36.157Z,14.13
2022-11-28T11:20:34.624Z,14.24
2022-11-28T11:23:24.114Z,14.27
2022-11-28T11:25:54.499Z,14.08
2022-11-28T11:28:27.927Z,13.98
2022-11-28T11:31:02.423Z,14.03
2022-11-28T11:33:37.666Z,14.13
2022-11-28T11:36:21.271Z,14.19
2022-11-28T11:38:49.766Z,13.91
2022-11-28T11:41:29.846Z,13.96
2022-11-28T11:44:29.360Z,14.07
2022-11-28T11:47:03.501Z,14.12
2022-11-28T11:49:34.983Z,14.18
2022-11-28T11:52:15.520Z,14.31
2022-11-28T11:54:46.927Z,14.26
2022-11-28T11:57:32.553Z,14.29
2022-11-28T12:00:08.132Z,14.14
2022-11-28T12:02:47.332Z,14.12
2022-11-28T12:05:19.609Z,14.03
2022-11-28T12:07:57.945Z,14.28
2022-11-28T12:10:30.965Z,14.24
2022-11-28T12:12:59.653Z,14.18
2022-11-28T12:15:41.207Z,14.05
2022-11-28T12:18:30.329Z,14.12
2022-11-28T12:21:10.971Z,14.20
2022-11-28T12:23:55.820Z,14.38
2022-11-28T12:26:49.982Z,14.15
2022-11-28T12:29:45.639Z,14.02
2022-11-28T12:32:29.561Z,14.08
2022-11-28T12:35:11.527Z,14.31
2022-11-28T12:38:12.467Z,14.38
2022-11-28T12:41:14.624Z,14.21
2022-11-28T12:44:20.762Z,14.42
2022-11-28T12:47:10.981Z,14.44
2022-11-28T12:49:59.208Z,14.48
2022-11-28T12:52:47.141Z,14.44
2022-11-28T12:55:27.740Z,14.58
2022-11-28T12:58:23.419Z,14.62
2022-11-28T13:01:12.178Z,14.58
2022-11-28T13:04:10.724Z,14.55
2022-11-28T13:06:54.117Z,14.49
2022-11-28T13:09:35.385Z,14.67
2022-11-28T13:12:26.735Z,14.77
2022-11-28T13:15:00.010Z,14.75
2022-11-28T13:17:40.730Z,14.64
2022-11-28T13:20:45.669Z,14.46
2022-11-28T13:23:23.789Z,14.44
2022-11-28T13:26:15.550Z,14.50
2022-11-28T13:28:56.063Z,14.62
2022-11-28T13:31:31.370Z,14.61
2022-11-28T13:34:00.728Z,14.67
2022-11-28T13:39:52.813Z,14.69
2022-11-28T13:43:10.815Z,14.65
2022-11-28T13:45:44.642Z,14.49
2022-11-28T13:49:13.307Z,14.62
2022-11-28T13:51:32.044Z,14.62
2022-11-28T13:54:22.588Z,14.48
2022-11-28T13:57:22.113Z,14.57
2022-11-28T13:59:57.774Z,14.60
2022-11-28T14:02:34.711Z,14.63
2022-11-28T14:05:05.030Z,14.70
2022-11-28T14:07:34.048Z,14.46
2022-11-28T14:10:10.240Z,14.50
2022-11-28T14:12:54.340Z,14.55
2022-11-28T14:15:31.465Z,14.53
2022-11-28T14:18:54.506Z,14.50
2022-11-28T14:21:37.831Z,14.53
2022-11-28T14:24:51.157Z,14.73
2022-11-28T14:27:27.720Z,14.73
2022-11-28T14:29:57.805Z,14.65
2022-11-28T14:32:42.232Z,14.84
2022-11-28T14:35:52.024Z,14.93
2022-11-28T14:38:34.564Z,14.92
2022-11-28T14:41:11.978Z,14.94
2022-11-28T14:43:44.658Z,14.85
2022-11-28T14:46:16.201Z,14.90
2022-11-28T14:48:59.864Z,14.97
2022-11-28T14:51:47.327Z,15.02
2022-11-28T14:54:18.822Z,15.06
2022-11-28T14:56:48.307Z,14.93
2022-11-28T14:59:17.671Z,14.86
2022-11-28T15:02:07.501Z,15.10
2022-11-28T15:04:42.049Z,14.91
2022-11-28T15:07:32.580Z,14.86
2022-11-28T15:10:13.243Z,14.83
2022-11-28T15:13:16.693Z,15.00
2022-11-28T15:15:49.478Z,15.04
2022-11-28T15:18:20.073Z,15.07
2022-11-28T15:20:55.210Z,15.13
2022-11-28T15:23:25.774Z,15.15
2022-11-28T15:25:58.022Z,15.09
2022-11-28T15:28:32.415Z,15.18
2022-11-28T15:31:05.599Z,15.17
2022-11-28T15:33:34.415Z,15.07
2022-11-28T15:36:16.984Z,14.93
2022-11-28T15:38:46.473Z,15.01
2022-11-28T15:41:21.727Z,14.84
2022-11-28T15:43:50.789Z,14.73
2022-11-28T15:46:23.533Z,14.70
2022-11-28T15:48:52.833Z,14.60
2022-11-28T15:51:32.732Z,14.68
2022-11-28T15:54:05.005Z,14.72
2022-11-28T15:56:34.753Z,14.79
2022-11-28T15:59:03.158Z,14.79
2022-11-28T16:01:32.808Z,14.75
2022-11-28T16:04:10.491Z,14.95
2022-11-28T16:06:43.042Z,14.91
2022-11-28T16:09:17.614Z,14.91
2022-11-28T16:11:52.165Z,14.94
2022-11-28T16:14:44.720Z,14.94
2022-11-28T16:17:19.563Z,14.78
2022-11-28T16:19:51.431Z,14.72
2022-11-28T16:22:22.299Z,14.64
2022-11-28T16:24:55.263Z,14.61
2022-11-28T16:27:35.949Z,14.49
2022-11-28T16:30:27.109Z,14.58
2022-11-28T16:32:56.625Z,14.47
2022-11-28T16:35:40.261Z,14.66
2022-11-28T16:38:25.195Z,14.76
2022-11-28T16:41:01.082Z,14.78
2022-11-28T16:43:40.423Z,14.73
2022-11-28T16:46:19.851Z,14.76
2022-11-28T16:48:53.854Z,14.72
2022-11-28T16:51:22.247Z,14.79
2022-11-28T16:53:53.257Z,14.82
2022-11-28T16:56:30.931Z,14.92
2022-11-28T16:59:19.153Z,15.03
2022-11-28T17:01:52.452Z,14.99
2022-11-28T17:04:29.130Z,15.00
2022-11-28T17:07:01.757Z,15.04
2022-11-28T17:09:30.522Z,14.96
2022-11-28T17:12:11.025Z,15.02
2022-11-28T17:14:39.540Z,14.98
2022-11-28T17:17:14.781Z,14.92
2022-11-28T17:19:44.204Z,14.86
2022-11-28T17:22:25.742Z,15.04
2022-11-28T17:24:59.589Z,14.94
2022-11-28T17:27:28.243Z,14.76
2022-11-28T17:29:56.640Z,14.78
2022-11-28T17:32:25.162Z,14.68
2022-11-28T17:34:53.783Z,14.67
2022-11-28T17:37:22.155Z,14.58
2022-11-28T17:40:09.295Z,14.61
2022-11-28T17:42:38.653Z,14.52
2022-11-28T17:45:14.896Z,14.59
2022-11-28T17:47:43.283Z,14.54
2022-11-28T17:50:11.841Z,14.64
2022-11-28T17:52:40.469Z,14.61
2022-11-28T17:55:08.912Z,14.61
2022-11-28T17:57:37.507Z,14.60
2022-11-28T18:00:07.936Z,14.73
2022-11-28T18:02:36.337Z,14.64
2022-11-28T18:05:05.299Z,14.61
2022-11-28T18:07:33.846Z,14.68
2022-11-28T18:10:03.988Z,14.69
2022-11-28T18:12:32.397Z,14.49
2022-11-28T18:15:01.428Z,14.42
2022-11-28T18:17:29.853Z,14.49
2022-11-28T18:19:58.203Z,14.38
2022-11-28T18:22:26.597Z,14.36
2022-11-28T18:24:54.956Z,14.38
2022-11-28T18:27:24.456Z,14.26
2022-11-28T18:29:52.945Z,14.22
2022-11-28T18:32:21.352Z,14.18
2022-11-28T18:34:49.807Z,14.32
2022-11-28T18:37:18.352Z,14.33
2022-11-28T18:39:46.813Z,14.19
2022-11-28T18:42:15.473Z,14.14
2022-11-28T18:44:43.847Z,14.14
2022-11-28T18:47:12.377Z,14.21
2022-11-28T18:49:40.904Z,14.20
2022-11-28T18:52:09.766Z,14.16
2022-11-28T18:54:38.524Z,14.19
2022-11-28T18:57:08.058Z,14.25
2022-11-28T18:59:36.509Z,14.16
2022-11-28T19:02:05.062Z,14.12
2022-11-28T19:04:33.521Z,14.14
2022-11-28T19:07:03.886Z,14.20
2022-11-28T19:09:32.779Z,14.19
2022-11-28T19:12:01.199Z,13.99
2022-11-28T19:14:29.793Z,14.06
2022-11-28T19:16:58.392Z,14.10
2022-11-28T19:19:26.905Z,14.07
2022-11-28T19:21:55.914Z,14.12
2022-11-28T19:24:24.298Z,14.09
2022-11-28T19:26:52.730Z,14.02
2022-11-28T19:29:21.253Z,13.95
2022-11-28T19:31:49.702Z,14.01
2022-11-28T19:34:19.018Z,13.98
2022-11-28T19:36:50.076Z,13.87
2022-11-28T19:39:22.039Z,13.92
2022-11-28T19:41:52.914Z,13.96
2022-11-28T19:44:23.995Z,13.99
2022-11-28T19:46:53.436Z,14.05
2022-11-28T19:49:23.410Z,14.03
2022-11-28T19:51:55.567Z,14.10
2022-11-28T19:54:24.208Z,14.18
2022-11-28T19:56:52.844Z,13.98
2022-11-28T19:59:21.332Z,14.01
2022-11-28T20:01:50.068Z,13.90
2022-11-28T20:04:20.223Z,13.78
2022-11-28T20:06:48.695Z,13.92
2022-11-28T20:09:17.095Z,13.96
2022-11-28T20:11:45.661Z,13.89
2022-11-28T20:14:18.341Z,13.91
2022-11-28T20:16:47.236Z,13.96
2022-11-28T20:19:17.780Z,13.93
2022-11-28T20:21:46.579Z,13.95
2022-11-28T20:24:15.553Z,13.87
2022-11-28T20:26:44.454Z,13.92
2022-11-28T20:29:15.904Z,13.80
2022-11-28T20:31:46.433Z,13.83
2022-11-28T20:34:17.794Z,13.86
2022-11-28T20:36:51.104Z,13.87
2022-11-28T20:39:19.798Z,13.78
2022-11-28T20:41:49.228Z,13.72
2022-11-28T20:44:18.734Z,13.69
2022-11-28T20:46:49.444Z,13.73
2022-11-28T20:49:18.343Z,13.70
2022-11-28T20:51:47.386Z,13.72
2022-11-28T20:54:16.031Z,13.54
2022-11-28T20:57:19.629Z,13.45
2022-11-28T20:59:33.585Z,13.46
2022-11-28T21:02:02.102Z,13.30
2022-11-28T21:04:31.388Z,13.36
2022-11-28T21:06:59.848Z,13.41
2022-11-28T21:09:28.234Z,13.41
2022-11-28T21:11:59.215Z,13.51
2022-11-28T21:14:29.487Z,13.54
2022-11-28T21:16:58.807Z,13.56
2022-11-28T21:19:27.316Z,13.55
2022-11-28T21:21:55.749Z,13.58
2022-11-28T21:24:24.259Z,13.55
2022-11-28T21:26:54.345Z,13.63
2022-11-28T21:29:24.385Z,13.65
2022-11-28T21:31:53.504Z,13.65
2022-11-28T21:34:22.824Z,13.62
2022-11-28T21:36:51.209Z,13.32
2022-11-28T21:39:20.532Z,13.04
2022-11-28T21:41:50.819Z,13.24
2022-11-28T21:44:20.343Z,13.35
2022-11-28T21:46:48.856Z,13.26
2022-11-28T21:49:17.372Z,13.07
2022-11-28T21:51:45.856Z,12.88
2022-11-28T21:54:14.230Z,13.02
2022-11-28T21:56:42.728Z,13.21
2022-11-28T21:59:11.206Z,13.32
2022-11-28T22:01:39.673Z,13.25
2022-11-28T22:04:09.845Z,13.31
2022-11-28T22:06:38.306Z,13.35
2022-11-28T22:09:09.414Z,13.32
2022-11-28T22:11:39.004Z,13.24
2022-11-28T22:14:07.605Z,13.34
2022-11-28T22:16:36.056Z,13.35
2022-11-28T22:19:04.553Z,13.02
2022-11-28T22:24:21.823Z,13.09
2022-11-28T22:26:50.417Z,12.98
2022-11-28T22:29:18.891Z,12.96
2022-11-28T22:31:47.371Z,12.97
2022-11-28T22:34:15.758Z,13.01
2022-11-28T22:36:44.172Z,13.11
2022-11-28T22:39:12.573Z,13.20
2022-11-28T22:41:41.168Z,13.25
2022-11-28T22:44:10.818Z,13.00
2022-11-28T22:46:39.639Z,13.17
2022-11-28T22:49:09.529Z,13.27
2022-11-28T22:51:38.599Z,13.32
2022-11-28T22:54:07.067Z,13.43
2022-11-28T22:56:35.578Z,13.37
2022-11-28T22:59:05.026Z,13.34
2022-11-28T23:01:34.273Z,13.35
2022-11-28T23:04:03.062Z,13.39
2022-11-28T23:06:34.534Z,13.38
2022-11-28T23:09:07.912Z,13.32
2022-11-28T23:11:38.744Z,13.03
2022-11-28T23:14:07.634Z,12.78
2022-11-28T23:16:39.430Z,12.76
2022-11-28T23:19:14.286Z,12.77
2022-11-28T23:21:44.996Z,13.00
2022-11-28T23:24:16.274Z,13.15
2022-11-28T23:26:44.815Z,13.13
2022-11-28T23:29:14.322Z,13.06
2022-11-28T23:31:44.169Z,13.20
2022-11-28T23:34:13.280Z,13.03
2022-11-28T23:36:44.765Z,13.13
2022-11-28T23:39:19.057Z,13.22
2022-11-28T23:41:48.144Z,13.22
2022-11-28T23:44:18.195Z,13.14
2022-11-28T23:46:48.116Z,13.00
2022-11-28T23:49:16.864Z,12.99
2022-11-28T23:51:46.293Z,12.88
2022-11-28T23:54:14.764Z,12.86
2022-11-28T23:56:43.467Z,12.90
2022-11-28T23:59:13.066Z,12.99
